Time;durP1;ratioP1;P1;durP2;ratioP2;P2;SDS_P1;SDS_P2;PMS_P1;PMS_P2;Temp;Humidity;BMP_temperature;BMP_pressure;BME280_temperature;BME280_humidity;BME280_pressure;Samples;Min_cycle;Max_cycle;Signal;HPM_P1;HPM_P2
2021/05/26 00:01:30;;;;;;;;;2.00;2.00;;;;;20.17;37.53;99540.44;4989565;28;8817;-53
2021/05/26 00:03:55;;;;;;;;;2.00;2.00;;;;;20.15;37.70;99529.00;4996495;28;8824;-53
2021/05/26 00:06:20;;;;;;;;;2.00;2.00;;;;;20.16;37.61;99539.63;4993302;28;8870;-53
2021/05/26 00:08:46;;;;;;;;;2.00;2.00;;;;;20.15;37.59;99539.97;5000793;28;8789;-52
2021/05/26 00:11:14;;;;;;;;;1.75;1.75;;;;;20.14;37.62;99536.44;4997405;28;8859;-53
2021/05/26 00:13:42;;;;;;;;;2.00;2.00;;;;;20.14;37.75;99538.34;4993966;28;8779;-52
2021/05/26 00:16:08;;;;;;;;;2.00;2.00;;;;;20.14;37.63;99532.88;4988821;28;8808;-52
2021/05/26 00:18:33;;;;;;;;;3.00;3.00;;;;;20.39;37.38;99537.34;4996830;28;8834;-52
2021/05/26 00:21:00;;;;;;;;;2.00;2.00;;;;;20.32;37.45;99525.34;4998228;28;8897;-53
2021/05/26 00:23:26;;;;;;;;;2.00;2.00;;;;;20.19;37.73;99521.72;4997000;28;10849;-52
2021/05/26 00:25:51;;;;;;;;;2.00;2.00;;;;;20.12;37.76;99522.28;4990797;28;8829;-52
2021/05/26 00:28:17;;;;;;;;;2.00;2.00;;;;;20.11;37.62;99517.94;4973930;28;8857;-52
2021/05/26 00:30:47;;;;;;;;;3.00;3.00;;;;;20.09;37.73;99511.16;4976758;28;8933;-52
2021/05/26 00:33:13;;;;;;;;;3.20;3.20;;;;;20.09;37.83;99511.16;4973038;28;11568;-53
2021/05/26 00:35:38;;;;;;;;;2.00;2.00;;;;;20.10;37.81;99518.25;4981926;28;8798;-52
2021/05/26 00:38:04;;;;;;;;;2.50;2.50;;;;;20.08;37.69;99510.38;4969852;28;10901;-52
2021/05/26 00:40:29;;;;;;;;;3.00;3.00;;;;;20.07;37.72;99511.53;4974088;28;9628;-53
2021/05/26 00:42:55;;;;;;;;;2.50;2.50;;;;;20.07;37.75;99524.41;4983666;28;8830;-53
2021/05/26 00:45:20;;;;;;;;;2.75;2.25;;;;;20.05;37.88;99528.28;4995314;28;8804;-53
2021/05/26 00:47:48;;;;;;;;;3.00;3.00;;;;;20.05;37.87;99528.28;5005454;28;9537;-53
2021/05/26 00:50:16;;;;;;;;;1.60;1.60;;;;;20.17;37.83;99524.00;4993236;28;8758;-52
2021/05/26 00:52:43;;;;;;;;;2.20;2.20;;;;;20.35;37.34;99514.50;4996670;28;8831;-52
2021/05/26 00:55:12;;;;;;;;;3.00;3.00;;;;;20.52;36.20;99526.44;5002106;28;8884;-52
2021/05/26 00:57:38;;;;;;;;;3.00;3.00;;;;;20.59;35.87;99518.47;5002121;28;8803;-52
2021/05/26 01:00:09;;;;;;;;;2.00;2.00;;;;;20.58;35.33;99517.66;4985177;28;8789;-52
2021/05/26 01:02:35;;;;;;;;;2.40;2.40;;;;;20.83;35.42;99508.75;4993139;28;8786;-52
2021/05/26 01:05:01;;;;;;;;;3.00;3.00;;;;;20.83;35.93;99506.78;4991968;28;8913;-52
2021/05/26 01:07:26;;;;;;;;;2.75;2.25;;;;;20.76;36.46;99506.53;4980435;28;8920;-52
2021/05/26 01:09:51;;;;;;;;;2.00;2.00;;;;;20.53;36.83;99497.91;4999546;28;8800;-52
2021/05/26 01:12:17;;;;;;;;;2.00;2.00;;;;;20.46;36.92;99497.66;4980829;28;8839;-52
2021/05/26 01:14:42;;;;;;;;;2.00;2.00;;;;;20.67;35.38;99494.84;4983270;28;8926;-51
2021/05/26 01:17:08;;;;;;;;;3.00;3.00;;;;;20.60;35.17;99493.47;4999446;28;8796;-52
2021/05/26 01:19:33;;;;;;;;;3.00;3.00;;;;;20.81;34.99;99495.38;5000035;28;8931;-52
2021/05/26 01:21:59;;;;;;;;;2.00;2.00;;;;;20.90;35.71;99495.28;5002266;28;8820;-52
2021/05/26 01:24:24;;;;;;;;;2.00;2.00;;;;;20.84;36.12;99496.63;4998708;28;8828;-53
2021/05/26 01:26:49;;;;;;;;;2.25;2.25;;;;;20.70;36.67;99486.78;4995370;28;8801;-52
2021/05/26 01:29:15;;;;;;;;;2.00;2.00;;;;;20.49;36.96;99486.81;4997330;28;8792;-52
2021/05/26 01:31:41;;;;;;;;;2.00;2.00;;;;;20.70;35.65;99486.78;4998985;28;8873;-52
2021/05/26 01:34:07;;;;;;;;;3.00;3.00;;;;;20.72;35.51;99489.97;5001808;28;8804;-52
2021/05/26 01:36:34;;;;;;;;;2.00;2.00;;;;;20.78;34.89;99490.56;4977184;28;8797;-51
2021/05/26 01:39:04;;;;;;;;;2.40;2.00;;;;;20.98;35.37;99497.09;4980962;28;8811;-52
2021/05/26 01:41:29;;;;;;;;;2.00;2.00;;;;;20.91;36.03;99492.16;4989899;28;8811;-52
2021/05/26 01:43:55;;;;;;;;;3.00;3.00;;;;;20.81;36.34;99498.09;4994345;28;8783;-52
2021/05/26 01:46:21;;;;;;;;;3.00;3.00;;;;;20.52;36.76;99497.09;4997764;28;8802;-52
2021/05/26 01:48:48;;;;;;;;;1.60;1.60;;;;;20.69;35.64;99493.41;4999934;28;8804;-51
2021/05/26 01:51:14;;;;;;;;;2.60;2.60;;;;;20.71;35.28;99491.13;4998227;28;9491;-51
2021/05/26 01:53:40;;;;;;;;;3.00;3.00;;;;;20.87;34.46;99490.47;5002527;28;8769;-51
2021/05/26 01:56:14;;;;;;;;;2.20;2.20;;;;;21.01;35.30;99490.94;4990488;28;8776;-52
2021/05/26 01:58:40;;;;;;;;;2.00;2.00;;;;;20.96;35.82;99502.91;4996222;28;8809;-52
2021/05/26 02:01:05;;;;;;;;;2.25;2.00;;;;;20.84;36.17;99497.41;5004407;28;9520;-52
2021/05/26 02:03:30;;;;;;;;;2.00;2.00;;;;;20.52;36.42;99493.56;4993548;28;8865;-52
2021/05/26 02:05:56;;;;;;;;;2.00;2.00;;;;;20.73;35.31;99491.56;4986001;28;8809;-51
2021/05/26 02:08:21;;;;;;;;;3.25;3.00;;;;;20.73;35.55;99501.75;4973297;28;9542;-51
2021/05/26 02:13:30;;;;;;;;;2.00;2.00;;;;;20.98;35.27;99500.66;4980503;28;8831;-53
2021/05/26 02:15:56;;;;;;;;;2.75;2.75;;;;;20.94;35.82;99494.22;4980602;28;8829;-51
2021/05/26 02:18:21;;;;;;;;;1.25;1.25;;;;;20.85;36.15;99488.06;4992752;28;8787;-51
2021/05/26 02:20:46;;;;;;;;;2.00;2.00;;;;;20.53;36.16;99476.78;4997330;28;8818;-52
2021/05/26 02:23:13;;;;;;;;;2.00;2.00;;;;;20.69;35.63;99473.41;4994899;28;8812;-51
2021/05/26 02:25:38;;;;;;;;;2.00;2.00;;;;;20.73;35.55;99466.91;4995115;28;8790;-51
2021/05/26 02:28:04;;;;;;;;;1.00;1.00;;;;;20.80;34.77;99467.13;4982167;28;8815;-51
2021/05/26 02:30:29;;;;;;;;;2.00;2.00;;;;;21.00;34.74;99461.91;4979917;28;8779;-52
2021/05/26 02:32:54;;;;;;;;;2.25;2.25;;;;;20.99;35.67;99469.31;4981939;28;8865;-51
2021/05/26 02:35:20;;;;;;;;;2.00;2.00;;;;;20.92;36.14;99455.38;4977326;28;9504;-51
2021/05/26 02:37:45;;;;;;;;;2.00;2.00;;;;;20.58;36.07;99456.59;4978344;28;8817;-51
2021/05/26 02:40:12;;;;;;;;;2.00;2.00;;;;;20.66;35.80;99458.44;4979300;28;8838;-51
2021/05/26 02:42:37;;;;;;;;;2.00;2.00;;;;;20.81;35.16;99451.50;4973899;28;8933;-51
2021/05/26 02:45:04;;;;;;;;;2.00;2.00;;;;;20.79;34.99;99443.63;4993148;28;8981;-51
2021/05/26 02:47:29;;;;;;;;;2.00;2.00;;;;;21.02;35.01;99445.94;4987753;28;8775;-51
2021/05/26 02:49:55;;;;;;;;;2.00;2.00;;;;;20.99;35.29;99443.84;4985806;28;8800;-52
2021/05/26 02:52:20;;;;;;;;;2.00;2.00;;;;;20.95;35.98;99448.44;5000444;28;8954;-51
2021/05/26 02:54:45;;;;;;;;;1.00;1.00;;;;;20.67;35.92;99438.13;4998121;28;8796;-52
2021/05/26 02:57:10;;;;;;;;;2.00;2.00;;;;;20.53;36.57;99437.63;4997810;28;8805;-52
2021/05/26 02:59:36;;;;;;;;;2.00;2.00;;;;;20.78;35.05;99433.78;4987020;28;8810;-51
2021/05/26 03:02:01;;;;;;;;;2.00;2.00;;;;;20.77;35.27;99428.66;4980713;28;8814;-51
2021/05/26 03:04:27;;;;;;;;;2.25;2.00;;;;;20.95;34.69;99429.25;4999213;28;9566;-51
2021/05/26 03:06:52;;;;;;;;;2.00;2.00;;;;;21.03;35.31;99425.56;4998682;28;8903;-51
2021/05/26 03:09:17;;;;;;;;;2.00;2.00;;;;;20.97;35.77;99427.75;4996916;28;8784;-51
2021/05/26 03:11:42;;;;;;;;;2.00;2.00;;;;;20.83;36.17;99424.56;4999437;28;8840;-51
2021/05/26 03:14:08;;;;;;;;;1.75;1.75;;;;;20.59;36.11;99426.06;4988778;28;8783;-51
2021/05/26 03:16:33;;;;;;;;;1.75;1.75;;;;;20.80;35.49;99423.28;5001037;28;8788;-51
2021/05/26 03:18:59;;;;;;;;;2.00;2.00;;;;;20.87;35.24;99416.44;5000935;28;8833;-51
2021/05/26 03:21:24;;;;;;;;;2.00;2.00;;;;;20.84;34.63;99417.91;4977817;28;8813;-51
2021/05/26 03:23:49;;;;;;;;;2.50;2.50;;;;;21.04;35.17;99415.41;4992162;28;8784;-51
2021/05/26 03:26:14;;;;;;;;;1.00;1.00;;;;;21.01;35.58;99408.66;4995189;28;8800;-51
2021/05/26 03:28:40;;;;;;;;;2.00;2.00;;;;;20.94;36.06;99414.72;4991943;28;8775;-51
2021/05/26 03:31:05;;;;;;;;;2.00;2.00;;;;;20.60;36.08;99422.22;4988909;28;8828;-51
2021/05/26 03:33:30;;;;;;;;;2.00;2.00;;;;;20.66;36.05;99411.84;4994795;28;8812;-51
2021/05/26 03:35:56;;;;;;;;;2.00;2.00;;;;;20.82;35.37;99408.44;4993205;28;8811;-51
2021/05/26 03:38:21;;;;;;;;;1.25;1.25;;;;;20.76;35.15;99403.19;4995638;28;8786;-52
2021/05/26 03:40:46;;;;;;;;;2.00;2.00;;;;;20.96;35.06;99395.19;4989252;28;8902;-51
2021/05/26 03:43:12;;;;;;;;;1.00;1.00;;;;;21.01;35.53;99392.22;4993784;28;8803;-51
2021/05/26 03:45:38;;;;;;;;;1.00;1.00;;;;;20.94;35.91;99386.50;4994881;28;8827;-51
2021/05/26 03:48:03;;;;;;;;;2.00;2.00;;;;;20.72;35.94;99385.84;4994808;28;8791;-51
2021/05/26 03:50:29;;;;;;;;;2.00;2.00;;;;;20.50;36.36;99383.50;4997928;28;12709;-51
2021/05/26 03:52:56;;;;;;;;;2.00;2.00;;;;;20.39;36.45;99372.19;4992718;28;8815;-51
2021/05/26 03:55:22;;;;;;;;;2.00;2.00;;;;;20.35;36.68;99383.03;4997414;28;8892;-51
2021/05/26 03:57:48;;;;;;;;;2.00;2.00;;;;;20.32;36.70;99370.00;4995802;28;8871;-51
2021/05/26 04:00:17;;;;;;;;;2.00;2.00;;;;;20.30;36.83;99372.28;4993742;28;8808;-51
2021/05/26 04:02:43;;;;;;;;;2.00;2.00;;;;;20.28;36.93;99366.34;4978547;28;8769;-51
2021/05/26 04:05:09;;;;;;;;;2.00;2.00;;;;;20.28;36.55;99376.50;4975085;28;8785;-51
2021/05/26 04:07:34;;;;;;;;;2.00;2.00;;;;;20.27;36.77;99378.44;4973498;28;11541;-51
2021/05/26 04:09:59;;;;;;;;;1.75;1.75;;;;;20.26;36.92;99390.53;4994897;28;8831;-52
2021/05/26 04:12:27;;;;;;;;;2.00;2.00;;;;;20.21;37.03;99379.78;4992424;28;8861;-51
2021/05/26 04:14:52;;;;;;;;;2.00;2.00;;;;;20.20;36.97;99381.72;4976763;28;8805;-51
2021/05/26 04:17:18;;;;;;;;;1.00;1.00;;;;;20.24;37.13;99385.41;4983818;28;8775;-51
2021/05/26 04:19:44;;;;;;;;;2.00;2.00;;;;;20.56;36.50;99376.66;4982682;28;8760;-51
2021/05/26 04:22:09;;;;;;;;;2.00;2.00;;;;;20.30;36.86;99375.03;5005030;28;8837;-51
2021/05/26 04:24:35;;;;;;;;;2.00;2.00;;;;;20.24;36.91;99376.38;4998203;28;8888;-51
2021/05/26 04:27:00;;;;;;;;;2.00;2.00;;;;;20.20;37.08;99376.25;4998419;28;8778;-52
2021/05/26 04:29:25;;;;;;;;;2.00;2.00;;;;;20.18;37.28;99366.78;5005811;28;8780;-52
2021/05/26 04:31:51;;;;;;;;;2.00;2.00;;;;;20.17;36.90;99367.91;4998591;28;8830;-51
2021/05/26 04:34:16;;;;;;;;;2.00;2.00;;;;;20.17;37.15;99370.66;4995160;28;9099;-50
2021/05/26 04:36:42;;;;;;;;;2.00;2.00;;;;;20.13;37.25;99377.94;4998731;28;9556;-51
2021/05/26 04:39:08;;;;;;;;;3.00;3.00;;;;;20.11;37.30;99378.28;4992795;28;11555;-51
2021/05/26 04:41:33;;;;;;;;;2.40;2.40;;;;;20.09;37.29;99379.75;4980586;28;10394;-51
2021/05/26 04:43:59;;;;;;;;;1.00;1.00;;;;;20.10;37.29;99364.94;4987474;28;9832;-52
2021/05/26 04:46:24;;;;;;;;;3.00;2.00;;;;;20.05;37.57;99358.53;4993239;28;8851;-51
2021/05/26 04:48:50;;;;;;;;;2.00;2.00;;;;;20.07;37.45;99360.13;5003274;28;8852;-51
2021/05/26 04:51:15;;;;;;;;;2.00;2.00;;;;;20.28;37.18;99352.66;4997698;28;9568;-51
2021/05/26 04:53:40;;;;;;;;;3.00;3.00;;;;;20.31;37.13;99351.97;4994918;28;8806;-51
2021/05/26 04:56:06;;;;;;;;;2.00;2.00;;;;;20.24;37.17;99362.69;4995426;28;8787;-52
2021/05/26 04:58:31;;;;;;;;;2.00;2.00;;;;;20.12;37.38;99368.94;4993637;28;8783;-52
2021/05/26 05:00:56;;;;;;;;;2.00;2.00;;;;;20.07;37.48;99360.13;5000348;28;8838;-51
2021/05/26 05:03:22;;;;;;;;;2.50;2.50;;;;;20.05;37.51;99352.25;4997887;28;8791;-51
2021/05/26 05:05:47;;;;;;;;;2.00;2.00;;;;;20.04;37.45;99339.72;4994928;28;8844;-51
2021/05/26 05:08:12;;;;;;;;;2.00;2.00;;;;;20.05;37.51;99344.84;4996323;28;8903;-51
2021/05/26 05:10:38;;;;;;;;;2.00;2.00;;;;;20.04;37.61;99334.25;4995903;28;8837;-51
2021/05/26 05:13:03;;;;;;;;;2.00;2.00;;;;;20.04;37.53;99347.94;4999325;28;8840;-51
2021/05/26 05:15:29;;;;;;;;;2.25;2.25;;;;;20.38;36.98;99340.44;4999266;28;8837;-52
2021/05/26 05:17:55;;;;;;;;;3.00;3.00;;;;;22.03;34.71;99336.34;4995322;28;8845;-51
2021/05/26 05:20:21;;;;;;;;;3.00;3.00;;;;;21.22;35.55;99326.25;4991496;28;8795;-51
2021/05/26 05:22:48;;;;;;;;;2.00;2.00;;;;;21.10;35.84;99337.25;4979289;28;8922;-51
2021/05/26 05:25:14;;;;;;;;;2.00;2.00;;;;;21.47;35.31;99331.69;4998195;28;8819;-51
2021/05/26 05:27:40;;;;;;;;;3.00;3.00;;;;;21.27;35.37;99334.22;4995849;28;8800;-51
2021/05/26 05:30:06;;;;;;;;;2.40;2.40;;;;;21.06;35.91;99342.63;4995957;28;8804;-51
2021/05/26 05:32:32;;;;;;;;;2.00;2.00;;;;;20.97;35.93;99336.47;4999772;28;8800;-51
2021/05/26 05:34:58;;;;;;;;;2.50;2.50;;;;;20.89;36.18;99327.22;4998706;28;9520;-52
2021/05/26 05:37:23;;;;;;;;;2.00;2.00;;;;;20.94;36.03;99331.69;4991898;28;9674;-51
2021/05/26 05:39:49;;;;;;;;;2.00;2.00;;;;;20.90;36.15;99330.78;5000499;28;8779;-51
2021/05/26 05:42:14;;;;;;;;;2.00;2.00;;;;;20.89;36.24;99335.44;4995706;28;8797;-51
2021/05/26 05:44:40;;;;;;;;;2.25;2.00;;;;;20.87;36.32;99325.97;4996779;28;8802;-50
2021/05/26 05:47:05;;;;;;;;;2.25;2.25;;;;;20.91;36.26;99326.88;4999865;28;8792;-50
2021/05/26 05:49:30;;;;;;;;;2.00;2.00;;;;;20.92;36.23;99321.06;4996208;28;8792;-50
2021/05/26 05:51:56;;;;;;;;;3.00;3.00;;;;;20.87;36.30;99332.25;5002303;28;8835;-52
2021/05/26 05:54:21;;;;;;;;;2.00;2.00;;;;;20.88;36.16;99322.91;4996787;28;8816;-50
2021/05/26 05:56:46;;;;;;;;;2.75;2.75;;;;;20.85;36.42;99328.28;4994430;28;8919;-50
2021/05/26 05:59:12;;;;;;;;;2.00;2.00;;;;;20.94;36.16;99317.97;4997536;28;8824;-51
2021/05/26 06:01:37;;;;;;;;;2.75;2.75;;;;;20.84;36.36;99329.41;4997236;28;8764;-50
2021/05/26 06:04:03;;;;;;;;;3.00;3.00;;;;;20.60;36.69;99328.25;4998342;28;8843;-50
2021/05/26 06:06:28;;;;;;;;;2.60;2.60;;;;;20.53;36.82;99331.56;4998819;28;8790;-50
2021/05/26 06:08:53;;;;;;;;;3.00;2.00;;;;;20.45;36.92;99334.41;4995287;28;8836;-51
2021/05/26 06:11:19;;;;;;;;;1.75;1.75;;;;;20.42;37.06;99333.97;4999171;28;8804;-50
2021/05/26 06:13:48;;;;;;;;;3.00;3.00;;;;;20.43;36.93;99346.50;4991858;28;8794;-50
2021/05/26 06:16:13;;;;;;;;;2.00;2.00;;;;;20.37;37.03;99347.09;4982317;28;8937;-50
2021/05/26 06:18:39;;;;;;;;;3.00;3.00;;;;;20.36;37.09;99351.75;4979876;28;8929;-50
2021/05/26 06:21:04;;;;;;;;;2.25;2.25;;;;;20.38;37.05;99352.19;4991094;28;8784;-50
2021/05/26 06:23:30;;;;;;;;;3.00;3.00;;;;;20.37;36.92;99350.63;4996191;28;8781;-50
2021/05/26 06:25:55;;;;;;;;;2.00;2.00;;;;;20.40;37.05;99349.94;4993007;28;8779;-50
2021/05/26 06:28:20;;;;;;;;;2.75;2.75;;;;;20.58;36.78;99347.78;4993698;28;8799;-50
2021/05/26 06:30:46;;;;;;;;;2.00;2.00;;;;;20.89;36.50;99346.41;5000825;28;8827;-51
2021/05/26 06:33:12;;;;;;;;;2.00;2.00;;;;;20.69;36.89;99339.13;4996857;28;8838;-50
2021/05/26 06:35:37;;;;;;;;;3.50;3.50;;;;;20.96;35.21;99337.59;4988878;28;8880;-52
2021/05/26 06:38:03;;;;;;;;;2.00;2.00;;;;;20.96;35.67;99334.88;4985715;28;8796;-52
2021/05/26 06:40:28;;;;;;;;;2.00;2.00;;;;;21.04;34.62;99342.19;4994265;28;8808;-52
2021/05/26 06:42:53;;;;;;;;;2.50;2.50;;;;;21.32;34.63;99341.44;4996313;28;8823;-52
2021/05/26 06:45:19;;;;;;;;;3.00;3.00;;;;;21.42;34.96;99340.91;4995875;28;8824;-52
2021/05/26 06:47:44;;;;;;;;;2.00;2.00;;;;;21.35;35.44;99343.47;4983768;28;8794;-53
2021/05/26 06:50:10;;;;;;;;;2.00;2.00;;;;;21.04;35.78;99338.66;4990338;28;8864;-52
2021/05/26 06:52:35;;;;;;;;;2.00;2.00;;;;;20.92;35.89;99351.22;4995235;28;8799;-52
2021/05/26 06:55:01;;;;;;;;;2.00;2.00;;;;;21.04;35.37;99342.19;4999387;28;8905;-52
2021/05/26 06:57:26;;;;;;;;;1.50;1.50;;;;;21.08;34.74;99351.31;4999135;28;8796;-52
2021/05/26 06:59:51;;;;;;;;;2.00;2.00;;;;;21.25;34.20;99347.50;4993812;28;9161;-53
2021/05/26 07:02:17;;;;;;;;;2.00;2.00;;;;;21.37;34.64;99349.41;5002687;28;9062;-52
2021/05/26 07:04:42;;;;;;;;;2.00;2.00;;;;;21.35;35.20;99352.50;4990162;28;8826;-52
2021/05/26 07:07:07;;;;;;;;;2.00;2.00;;;;;21.25;35.21;99357.66;4992348;28;8906;-52
2021/05/26 07:09:33;;;;;;;;;2.00;2.00;;;;;20.97;35.99;99356.47;4995766;28;8861;-52
2021/05/26 07:11:58;;;;;;;;;1.00;1.00;;;;;21.14;34.88;99347.19;4995211;28;8820;-52
2021/05/26 07:14:23;;;;;;;;;1.75;1.75;;;;;21.20;34.54;99355.97;4989063;28;8806;-52
2021/05/26 07:16:49;;;;;;;;;1.25;1.25;;;;;21.30;33.78;99352.75;4996677;28;8811;-52
2021/05/26 07:19:14;;;;;;;;;2.00;2.00;;;;;21.38;34.63;99353.75;4995708;28;8927;-52
2021/05/26 07:21:40;;;;;;;;;2.75;2.00;;;;;21.49;34.91;99357.63;4992103;28;8826;-52
2021/05/26 07:24:06;;;;;;;;;2.00;2.00;;;;;21.35;34.99;99351.69;4998416;28;8804;-52
2021/05/26 07:26:31;;;;;;;;;1.60;1.60;;;;;21.06;35.67;99350.84;4991528;28;8811;-52
2021/05/26 07:28:57;;;;;;;;;2.00;1.75;;;;;21.30;34.50;99357.41;4997850;28;8815;-52
2021/05/26 07:31:22;;;;;;;;;2.00;2.00;;;;;21.35;34.48;99357.19;4988612;28;8811;-52
2021/05/26 07:33:47;;;;;;;;;2.00;2.00;;;;;21.31;33.96;99348.06;4990624;28;8832;-52
2021/05/26 07:36:13;;;;;;;;;2.00;2.00;;;;;21.40;34.62;99356.94;4988614;28;8799;-52
2021/05/26 07:38:39;;;;;;;;;2.00;2.00;;;;;21.40;35.04;99342.44;4990516;28;8794;-52
2021/05/26 07:41:05;;;;;;;;;2.40;2.00;;;;;21.36;35.19;99353.31;4992995;28;10629;-52
2021/05/26 07:43:33;;;;;;;;;2.00;2.00;;;;;21.06;35.60;99334.41;4996622;28;8874;-52
2021/05/26 07:45:58;;;;;;;;;1.40;1.40;;;;;21.20;34.44;99345.00;4999957;28;8814;-52
2021/05/26 07:48:24;;;;;;;;;2.25;2.25;;;;;21.22;34.47;99352.88;4987042;28;8787;-51
2021/05/26 07:50:49;;;;;;;;;1.25;1.25;;;;;21.27;33.84;99349.91;4990878;28;8795;-52
2021/05/26 07:53:14;;;;;;;;;2.00;2.00;;;;;21.57;34.39;99346.88;5000553;28;8835;-52
2021/05/26 07:55:40;;;;;;;;;2.00;2.00;;;;;21.54;34.55;99340.91;4997040;28;9584;-53
2021/05/26 07:58:05;;;;;;;;;2.00;2.00;;;;;21.47;35.21;99343.44;4998826;28;8826;-52
2021/05/26 08:00:30;;;;;;;;;2.25;2.25;;;;;21.07;35.29;99338.75;4999817;28;8914;-52
2021/05/26 08:02:56;;;;;;;;;2.50;2.50;;;;;21.24;34.55;99347.84;4997159;28;8804;-52
2021/05/26 08:05:21;;;;;;;;;2.00;2.00;;;;;21.31;34.50;99339.81;4986598;28;8792;-53
2021/05/26 08:07:47;;;;;;;;;2.00;2.00;;;;;21.44;33.64;99341.41;4979950;28;8788;-53
2021/05/26 08:10:13;;;;;;;;;2.00;2.00;;;;;21.57;34.28;99341.38;4993902;28;8799;-52
2021/05/26 08:12:39;;;;;;;;;2.00;2.00;;;;;21.57;34.52;99344.13;4996700;28;8969;-52
2021/05/26 08:15:07;;;;;;;;;3.00;3.00;;;;;21.50;35.13;99342.75;4990363;28;8812;-53
2021/05/26 08:17:32;;;;;;;;;2.00;2.00;;;;;21.15;35.26;99337.81;4994145;28;8764;-52
2021/05/26 08:20:01;;;;;;;;;1.75;1.75;;;;;21.24;34.60;99340.41;4986270;28;8841;-53
2021/05/26 08:22:26;;;;;;;;;2.00;2.00;;;;;21.35;34.60;99335.22;4976556;28;8884;-52
2021/05/26 08:24:51;;;;;;;;;3.00;3.00;;;;;21.37;33.92;99330.19;5004048;28;9588;-52
2021/05/26 08:27:17;;;;;;;;;2.00;2.00;;;;;21.57;34.06;99322.16;5001074;28;9629;-51
2021/05/26 08:29:42;;;;;;;;;2.00;2.00;;;;;21.61;34.66;99328.53;4990505;28;8807;-52
2021/05/26 08:32:07;;;;;;;;;2.00;2.00;;;;;21.58;34.93;99329.25;4988127;28;9571;-52
2021/05/26 08:34:33;;;;;;;;;2.00;2.00;;;;;21.26;34.96;99316.16;4988655;28;8803;-52
2021/05/26 08:36:58;;;;;;;;;2.00;2.00;;;;;21.28;34.93;99322.13;4995968;28;8844;-52
2021/05/26 08:39:23;;;;;;;;;2.75;2.75;;;;;21.43;34.41;99317.03;4986298;28;8799;-51
2021/05/26 08:41:53;;;;;;;;;2.00;2.00;;;;;21.45;33.92;99306.50;4993111;28;8813;-52
2021/05/26 08:44:19;;;;;;;;;1.00;1.00;;;;;21.60;33.99;99307.72;4992393;28;8799;-52
2021/05/26 08:46:51;;;;;;;;;1.80;1.80;;;;;21.63;34.38;99313.31;4989430;28;8796;-51
2021/05/26 08:49:17;;;;;;;;;2.00;2.00;;;;;21.59;34.87;99317.13;4992332;28;8934;-51
2021/05/26 08:51:43;;;;;;;;;1.00;1.00;;;;;21.34;34.61;99315.25;5001139;28;8831;-52
2021/05/26 08:54:09;;;;;;;;;2.00;2.00;;;;;21.23;35.46;99316.88;4997894;28;8780;-52
2021/05/26 08:56:34;;;;;;;;;2.00;2.00;;;;;21.44;34.26;99316.69;4994128;28;8768;-52
2021/05/26 08:59:00;;;;;;;;;1.75;1.75;;;;;21.47;33.92;99313.25;4997010;28;8885;-52
2021/05/26 09:01:25;;;;;;;;;1.00;1.00;;;;;21.67;33.65;99307.91;4990978;28;8906;-52
2021/05/26 09:03:52;;;;;;;;;2.00;2.00;;;;;21.71;34.24;99306.09;4999450;28;8817;-52
2021/05/26 09:06:17;;;;;;;;;2.00;2.00;;;;;21.69;34.68;99311.94;4990104;28;8786;-52
2021/05/26 09:08:53;;;;;;;;;1.75;1.75;;;;;21.46;35.00;99308.94;4985551;28;8821;-52
2021/05/26 09:11:36;;;;;;;;;2.00;2.00;;;;;21.25;35.48;99309.09;4992286;28;8885;-52
2021/05/26 09:14:12;;;;;;;;;1.00;1.00;;;;;21.48;34.39;99311.34;4994526;28;8811;-52
2021/05/26 09:16:37;;;;;;;;;1.40;1.40;;;;;21.54;34.02;99307.19;4997454;28;8866;-52
2021/05/26 09:19:05;;;;;;;;;1.00;1.00;;;;;21.67;33.68;99305.19;4998008;28;9078;-53
2021/05/26 09:21:44;;;;;;;;;2.00;2.00;;;;;21.74;34.29;99308.13;4994134;28;8799;-52
2021/05/26 09:24:18;;;;;;;;;2.00;2.00;;;;;21.69;34.80;99306.44;4991978;28;8802;-53
2021/05/26 09:26:52;;;;;;;;;2.80;2.80;;;;;21.43;34.88;99309.59;4991708;28;8779;-52
2021/05/26 09:29:25;;;;;;;;;2.00;2.00;;;;;21.29;35.29;99311.94;4985900;28;8767;-52
2021/05/26 09:32:15;;;;;;;;;1.80;1.80;;;;;21.49;34.24;99318.41;4997196;28;8903;-52
2021/05/26 09:34:46;;;;;;;;;2.00;2.00;;;;;21.54;33.83;99316.22;5002450;28;8792;-52
2021/05/26 09:37:20;;;;;;;;;2.00;2.00;;;;;21.71;33.89;99311.59;5000066;28;8842;-52
2021/05/26 09:39:46;;;;;;;;;2.00;2.00;;;;;21.75;34.20;99320.69;4993621;28;9563;-53
2021/05/26 09:42:36;;;;;;;;;2.00;2.00;;;;;21.69;34.77;99316.63;4988253;28;8790;-53
2021/05/26 09:45:09;;;;;;;;;2.00;2.00;;;;;21.45;34.67;99321.03;4988088;28;8791;-52
2021/05/26 09:47:34;;;;;;;;;2.20;2.20;;;;;21.47;34.57;99321.50;4983658;28;10012;-53
2021/05/26 09:50:20;;;;;;;;;2.00;2.00;;;;;21.57;33.81;99319.44;4985382;28;8838;-52
2021/05/26 09:53:00;;;;;;;;;2.00;2.00;;;;;21.63;33.24;99318.81;4991792;28;8755;-53
2021/05/26 09:55:37;;;;;;;;;2.00;2.00;;;;;21.73;33.95;99318.31;4993107;28;8921;-53
2021/05/26 09:58:05;;;;;;;;;1.60;1.60;;;;;21.72;34.30;99311.22;5004728;28;8840;-52
2021/05/26 10:00:31;;;;;;;;;2.00;2.00;;;;;21.70;34.79;99312.72;4991388;28;8786;-52
2021/05/26 10:02:57;;;;;;;;;2.00;2.00;;;;;21.30;35.01;99316.28;4999428;28;9608;-53
2021/05/26 10:05:24;;;;;;;;;2.00;2.00;;;;;21.36;34.62;99309.41;5000350;28;8807;-52
2021/05/26 10:07:57;;;;;;;;;2.00;2.00;;;;;21.49;34.33;99304.69;4992732;28;8779;-52
2021/05/26 10:10:25;;;;;;;;;1.80;1.80;;;;;21.55;33.72;99289.59;4993126;28;8780;-52
2021/05/26 10:12:56;;;;;;;;;2.00;2.00;;;;;21.70;33.99;99301.75;4990176;28;8838;-52
2021/05/26 10:15:24;;;;;;;;;2.00;2.00;;;;;21.69;34.44;99294.66;4993534;28;8814;-52
2021/05/26 10:17:52;;;;;;;;;2.00;2.00;;;;;21.67;34.89;99296.94;4989734;28;8828;-52
2021/05/26 10:20:24;;;;;;;;;2.00;2.00;;;;;21.65;34.62;99288.25;4991840;28;8909;-52
2021/05/26 10:22:52;;;;;;;;;2.00;2.00;;;;;21.75;34.11;99290.50;4992214;28;9527;-52
2021/05/26 10:25:19;;;;;;;;;3.00;3.00;;;;;21.88;33.94;99294.78;4994346;28;8831;-53
2021/05/26 10:27:45;;;;;;;;;1.00;1.00;;;;;21.55;33.41;99286.84;4997308;28;8817;-53
2021/05/26 10:30:11;;;;;;;;;2.20;1.80;;;;;21.80;33.90;99276.53;5000466;28;8787;-52
2021/05/26 10:33:09;;;;;;;;;2.00;2.00;;;;;21.92;34.11;99278.41;4993574;28;8828;-53
2021/05/26 10:35:58;;;;;;;;;2.00;2.00;;;;;21.74;34.65;99277.94;4973190;28;8856;-53
2021/05/26 10:38:24;;;;;;;;;2.00;2.00;;;;;21.51;34.79;99281.25;4986060;28;8780;-53
2021/05/26 10:40:51;;;;;;;;;2.00;2.00;;;;;21.60;34.16;99285.78;5002258;28;8749;-53
2021/05/26 10:43:17;;;;;;;;;2.00;2.00;;;;;21.57;34.37;99290.03;4991768;28;8810;-51
2021/05/26 10:45:43;;;;;;;;;2.00;2.00;;;;;21.62;33.39;99300.75;4997728;28;8800;-52
2021/05/26 10:48:09;;;;;;;;;2.40;2.40;;;;;21.86;33.67;99308.06;4999406;28;8780;-52
2021/05/26 10:50:55;;;;;;;;;2.50;1.75;;;;;21.78;34.34;99300.00;4992731;28;8810;-52
2021/05/26 10:53:22;;;;;;;;;2.00;2.00;;;;;21.62;34.96;99294.44;4989309;28;9543;-52
2021/05/26 10:55:50;;;;;;;;;2.00;2.00;;;;;21.31;35.15;99295.94;4976442;28;8811;-52
2021/05/26 10:58:16;;;;;;;;;2.00;2.00;;;;;21.32;34.80;99295.59;4995859;28;8796;-52
2021/05/26 11:00:43;;;;;;;;;2.00;2.00;;;;;21.45;34.48;99298.28;4996278;28;8826;-53
2021/05/26 11:03:24;;;;;;;;;2.00;2.00;;;;;21.64;33.49;99287.47;4990589;28;8811;-53
2021/05/26 11:05:50;;;;;;;;;2.00;2.00;;;;;21.72;34.06;99294.75;4992970;28;8807;-53
2021/05/26 11:08:55;;;;;;;;;2.00;2.00;;;;;21.67;34.55;99288.72;5009858;28;8762;-52
2021/05/26 11:11:28;;;;;;;;;2.80;2.80;;;;;21.65;34.89;99293.75;4991364;28;8817;-52
2021/05/26 11:14:06;;;;;;;;;2.00;2.00;;;;;21.38;34.96;99302.41;4994100;28;8850;-52
2021/05/26 11:17:00;;;;;;;;;2.20;2.20;;;;;21.52;34.42;99293.81;4990796;28;8799;-52
2021/05/26 11:19:27;;;;;;;;;1.60;1.60;;;;;21.62;34.01;99288.97;4992376;28;8792;-53
2021/05/26 11:22:02;;;;;;;;;2.00;2.00;;;;;21.66;33.45;99295.38;4994441;28;8821;-52
2021/05/26 11:24:33;;;;;;;;;2.00;2.00;;;;;22.04;33.96;99294.81;4993712;28;8792;-53
2021/05/26 11:26:59;;;;;;;;;2.00;2.00;;;;;21.98;33.75;99298.16;4996356;28;8831;-52
2021/05/26 11:29:26;;;;;;;;;2.00;2.00;;;;;21.84;34.54;99296.63;4999431;28;8771;-53
2021/05/26 11:32:04;;;;;;;;;1.80;1.80;;;;;21.42;35.17;99302.50;4998245;28;8794;-53
2021/05/26 11:34:30;;;;;;;;;2.00;2.00;;;;;21.63;34.29;99296.06;4994053;28;8889;-52
2021/05/26 11:36:55;;;;;;;;;2.00;2.00;;;;;21.68;33.92;99293.06;4997827;28;8819;-53
2021/05/26 11:39:35;;;;;;;;;2.00;2.00;;;;;21.71;33.46;99295.09;4982377;28;8783;-53
2021/05/26 11:42:25;;;;;;;;;2.00;2.00;;;;;21.90;34.13;99300.72;4987698;28;8812;-53
2021/05/26 11:45:00;;;;;;;;;1.00;1.00;;;;;21.83;34.47;99289.56;4984625;28;8817;-53